Deschaillons-Sur-Saint-Laurent, Canada
Current Conditions -  °F | °C
As of 2:00 AM on Thursday 23 Oct 2014 (Local Time) from CYRQ Reporting Station
Broken Clouds Broken Clouds  
Wind Chill:   Ceiling: 11000
Heat Index:   Visibility: 9mi
Dew Point:   Wind: 14mph
Humidity: 70%   Direction: 50°NE
Pressure: 30.22"   Gusts: 20mph
Location:  46.55°N, 72.12°W
Report Text: CYRQ 230600Z AUTO 05012G17KT 9SM FEW090 BKN110 06/01 A3022 RMK SLP235
Loading
Personal Weather Stations






























Interactive Weather Map
Tropical Storm Tracking
New forecast layout! Learn more

10-Day Weather Forecast

Advertisements
Track Severe Weather on mobile